Time;durP1;ratioP1;P1;durP2;ratioP2;P2;SDS_P1;SDS_P2;PMS_P1;PMS_P2;Temp;Humidity;BMP_temperature;BMP_pressure;BME280_temperature;BME280_humidity;BME280_pressure;Samples;Min_cycle;Max_cycle;Signal;HPM_P1;HPM_P2
2023/08/16 00:00:25;;;;;;;16.45;13.70;;;;;;;-143.21;71.68;71497.16;5066269;28;20205;-82
2023/08/16 00:02:51;;;;;;;17.65;13.40;;;;;;;-143.21;71.83;71495.19;5067876;28;20201;-77
2023/08/16 00:05:18;;;;;;;19.00;14.38;;;;;;;-143.21;71.94;71505.09;5069588;28;20686;-78
2023/08/16 00:07:46;;;;;;;18.55;13.63;;;;;;;-143.21;72.33;71516.97;5070473;28;20630;-77
2023/08/16 00:10:13;;;;;;;15.68;13.43;;;;;;;-143.21;73.01;71528.88;5063798;28;20221;-77
2023/08/16 00:12:40;;;;;;;23.65;14.68;;;;;;;-143.21;73.17;71538.78;5065995;28;20565;-76
2023/08/16 00:15:09;;;;;;;20.63;14.75;;;;;;;-143.21;73.67;71548.72;5067801;28;20723;-76
2023/08/16 00:17:36;;;;;;;17.92;14.38;;;;;;;-143.21;73.64;71548.72;5060083;28;20216;-76
2023/08/16 00:20:04;;;;;;;20.33;14.88;;;;;;;-143.21;73.30;71550.69;5062854;28;20870;-76
2023/08/16 00:22:31;;;;;;;20.95;15.57;;;;;;;-143.21;73.97;71564.56;5064899;28;20215;-76
2023/08/16 00:24:58;;;;;;;20.33;14.65;;;;;;;-143.21;74.04;71574.47;5069240;28;20212;-76
2023/08/16 00:27:25;;;;;;;20.63;14.63;;;;;;;-143.21;74.30;71570.53;5064791;28;20216;-77
2023/08/16 00:29:51;;;;;;;19.30;14.55;;;;;;;-143.21;74.49;71578.44;5066063;28;20236;-76
2023/08/16 00:32:20;;;;;;;21.00;14.57;;;;;;;-143.21;74.59;71584.41;5065630;28;20197;-77
2023/08/16 00:34:46;;;;;;;20.05;15.02;;;;;;;-143.21;74.40;71574.47;5065866;28;20586;-77
2023/08/16 00:37:13;;;;;;;22.10;15.05;;;;;;;-143.21;74.18;71576.47;5066788;28;20208;-81
2023/08/16 00:39:40;;;;;;;23.45;16.20;;;;;;;-143.21;74.28;71586.38;5058982;28;20232;-82
2023/08/16 00:42:07;;;;;;;25.73;16.60;;;;;;;-143.21;74.33;71590.34;5057350;28;20217;-82
2023/08/16 00:44:34;;;;;;;27.13;16.42;;;;;;;-143.21;74.57;71592.31;5062772;28;20256;-82
2023/08/16 00:47:01;;;;;;;19.80;15.57;;;;;;;-143.21;74.78;71594.31;5058729;28;20206;-81
2023/08/16 00:49:30;;;;;;;21.58;15.43;;;;;;;-143.21;74.78;71596.28;5062268;28;20229;-81
2023/08/16 00:51:57;;;;;;;21.80;15.57;;;;;;;-143.21;74.62;71588.38;5063488;28;20216;-81
2023/08/16 00:54:24;;;;;;;22.80;15.45;;;;;;;-143.21;74.81;71594.31;5063375;28;20233;-81
2023/08/16 00:56:52;;;;;;;20.58;14.93;;;;;;;-143.21;74.54;71602.25;5059225;28;20210;-81
2023/08/16 00:59:19;;;;;;;17.27;14.07;;;;;;;-143.21;74.66;71612.16;5060241;28;20655;-81
2023/08/16 01:01:46;;;;;;;24.58;14.20;;;;;;;-143.21;74.53;71614.13;5057119;28;20198;-81
2023/08/16 01:04:14;;;;;;;17.13;13.68;;;;;;;-143.21;74.49;71610.16;5066906;28;20259;-81
2023/08/16 01:06:42;;;;;;;17.67;13.68;;;;;;;-143.21;74.80;71612.16;5065271;28;20212;-76
2023/08/16 01:09:08;;;;;;;17.75;13.25;;;;;;;-143.21;75.03;71612.16;5063962;28;21156;-75
2023/08/16 01:11:42;;;;;;;18.92;13.55;;;;;;;-143.21;75.04;71610.16;5064501;28;20205;-76
2023/08/16 01:14:14;;;;;;;17.08;14.13;;;;;;;-143.21;74.96;71612.16;5066886;28;20213;-76
2023/08/16 01:16:44;;;;;;;16.50;13.45;;;;;;;-143.21;74.39;71610.16;5061654;28;20221;-76
2023/08/16 01:19:14;;;;;;;17.65;13.25;;;;;;;-143.21;74.95;71614.13;5062029;28;20252;-75
2023/08/16 01:21:51;;;;;;;15.88;13.45;;;;;;;-143.21;75.00;71602.25;5065548;28;20215;-75
2023/08/16 01:24:23;;;;;;;19.30;13.75;;;;;;;-143.21;74.33;71594.31;5064737;28;20255;-76
2023/08/16 01:26:53;;;;;;;20.83;13.30;;;;;;;-143.21;74.03;71592.31;5065157;28;20685;-76
2023/08/16 01:29:21;;;;;;;17.13;13.40;;;;;;;-143.21;74.28;71598.28;5068331;28;20318;-76
2023/08/16 01:31:47;;;;;;;16.77;13.23;;;;;;;-143.21;73.96;71604.22;5067183;28;20201;-76
2023/08/16 01:34:14;;;;;;;17.83;13.38;;;;;;;-143.21;75.01;71616.13;5066180;28;20201;-76
2023/08/16 01:36:41;;;;;;;18.15;13.00;;;;;;;-143.21;75.24;71612.16;5064143;28;20212;-76
2023/08/16 01:39:08;;;;;;;16.73;13.55;;;;;;;-143.21;75.18;71610.16;5060662;28;20492;-76
2023/08/16 01:41:44;;;;;;;20.63;13.25;;;;;;;-143.21;74.72;71602.25;5061104;28;20294;-84
2023/08/16 01:44:13;;;;;;;19.83;14.00;;;;;;;-143.21;74.68;71596.28;5063065;28;20217;-84
2023/08/16 01:46:42;;;;;;;17.90;13.38;;;;;;;-143.21;75.22;71610.16;5062274;28;20220;-84
2023/08/16 01:49:10;;;;;;;21.40;13.98;;;;;;;-143.21;75.69;71626.03;5061637;28;20213;-84
2023/08/16 01:51:38;;;;;;;21.40;13.73;;;;;;;-143.21;75.70;71622.06;5061487;28;20578;-84
2023/08/16 01:54:05;;;;;;;16.45;13.65;;;;;;;-143.21;75.38;71614.13;5055916;28;20237;-84
2023/08/16 01:56:32;;;;;;;19.90;13.25;;;;;;;-143.21;75.27;71608.19;5060535;28;20216;-83
2023/08/16 01:58:59;;;;;;;19.55;14.27;;;;;;;-143.21;75.12;71604.22;5053134;28;20697;-83
2023/08/16 02:01:27;;;;;;;22.80;13.43;;;;;;;-143.21;75.05;71608.19;5055810;28;20202;-83
2023/08/16 02:03:54;;;;;;;18.40;13.65;;;;;;;-143.21;75.01;71616.13;5066059;28;20213;-78
2023/08/16 02:06:22;;;;;;;19.83;13.82;;;;;;;-143.21;74.99;71624.06;5064234;28;20695;-78
2023/08/16 02:08:49;;;;;;;17.85;13.68;;;;;;;-143.21;75.48;71626.03;5067415;28;20217;-78
2023/08/16 02:11:16;;;;;;;17.33;13.32;;;;;;;-143.21;75.50;71616.13;5067900;28;20583;-77
2023/08/16 02:13:43;;;;;;;20.80;14.13;;;;;;;-143.21;75.45;71630.00;5067759;28;20209;-77
2023/08/16 02:16:10;;;;;;;19.70;13.98;;;;;;;-143.21;75.52;71633.97;5062750;28;20210;-77
2023/08/16 02:18:38;;;;;;;19.08;13.90;;;;;;;-143.21;75.28;71635.94;5063862;28;20224;-77
2023/08/16 02:21:05;;;;;;;18.95;14.20;;;;;;;-143.21;75.08;71643.88;5067413;28;20198;-77
2023/08/16 02:23:31;;;;;;;20.08;14.50;;;;;;;-143.21;75.60;71649.81;5067139;28;20205;-77
2023/08/16 02:25:58;;;;;;;19.60;13.82;;;;;;;-143.21;76.14;71655.78;5067594;28;20255;-78
2023/08/16 02:28:25;;;;;;;23.27;13.98;;;;;;;-143.21;76.37;71657.75;5060823;28;20208;-78
2023/08/16 02:30:52;;;;;;;20.55;14.10;;;;;;;-143.21;76.48;71653.78;5059954;28;20236;-77
2023/08/16 02:33:19;;;;;;;17.80;14.05;;;;;;;-143.21;76.30;71653.78;5063396;28;20202;-77
2023/08/16 02:35:47;;;;;;;20.38;14.32;;;;;;;-143.21;76.13;71645.88;5060080;28;20660;-77
2023/08/16 02:38:14;;;;;;;18.38;13.77;;;;;;;-143.21;76.03;71649.81;5063983;28;20205;-77
2023/08/16 02:40:41;;;;;;;22.10;14.50;;;;;;;-143.21;76.48;71659.75;5064241;28;20202;-76
2023/08/16 02:43:08;;;;;;;21.05;14.38;;;;;;;-143.21;76.93;71667.66;5065896;28;20217;-77
2023/08/16 02:45:36;;;;;;;27.65;14.00;;;;;;;-143.21;77.36;71675.59;5066268;28;20206;-77
2023/08/16 02:48:03;;;;;;;17.48;14.70;;;;;;;-143.21;77.89;71675.59;5066748;28;20210;-77
2023/08/16 02:50:30;;;;;;;21.58;14.65;;;;;;;-143.21;76.98;71657.75;5063290;28;20233;-76
2023/08/16 02:52:58;;;;;;;17.60;13.70;;;;;;;-143.21;76.40;71653.78;5066712;28;20274;-77
2023/08/16 02:55:25;;;;;;;18.67;14.68;;;;;;;-143.21;76.72;71673.63;5062781;28;20229;-77
2023/08/16 02:57:52;;;;;;;18.60;13.85;;;;;;;-143.21;77.51;71689.47;5061614;28;20205;-77
2023/08/16 03:00:19;;;;;;;18.98;14.60;;;;;;;-143.21;77.54;71689.47;5064800;28;20202;-76
2023/08/16 03:02:46;;;;;;;22.65;14.20;;;;;;;-143.21;78.08;71687.50;5062602;28;20197;-77
2023/08/16 03:05:13;;;;;;;16.52;14.32;;;;;;;-143.21;77.97;71689.47;5067218;28;20193;-77
2023/08/16 03:07:40;;;;;;;19.13;14.50;;;;;;;-143.21;77.74;71685.50;5066648;28;20216;-76
2023/08/16 03:10:10;;;;;;;20.30;16.60;;;;;;;-143.21;77.96;71695.44;5060045;28;20225;-77
2023/08/16 03:12:36;;;;;;;20.25;15.18;;;;;;;-143.21;77.58;71685.50;5066960;28;20213;-76
2023/08/16 03:15:04;;;;;;;19.63;16.45;;;;;;;-143.21;77.31;71675.59;5066542;28;20209;-76
2023/08/16 03:17:30;;;;;;;21.77;17.23;;;;;;;-143.21;77.56;71679.56;5064881;28;20212;-76
2023/08/16 03:19:57;;;;;;;30.70;23.25;;;;;;;-143.21;77.17;71691.47;5066079;28;20201;-77
2023/08/16 03:22:24;;;;;;;29.40;22.58;;;;;;;-143.21;77.56;71709.31;5062557;28;20210;-77
2023/08/16 03:24:51;;;;;;;33.75;22.23;;;;;;;-143.21;77.95;71713.28;5064474;28;20288;-77
2023/08/16 03:27:19;;;;;;;28.85;22.45;;;;;;;-143.21;78.01;71713.28;5066251;28;20213;-79
2023/08/16 03:29:46;;;;;;;29.70;21.35;;;;;;;-143.21;78.06;71713.28;5066341;28;20229;-77
2023/08/16 03:32:12;;;;;;;28.55;17.70;;;;;;;-143.21;77.74;71713.28;5063717;28;20201;-77
2023/08/16 03:34:39;;;;;;;24.77;18.23;;;;;;;-143.21;77.67;71715.25;5066582;28;20198;-77
2023/08/16 03:37:06;;;;;;;24.55;18.70;;;;;;;-143.21;78.12;71727.16;5063859;28;20269;-77
2023/08/16 03:39:33;;;;;;;28.15;18.90;;;;;;;-143.21;78.34;71729.13;5062449;28;20248;-77
2023/08/16 03:42:00;;;;;;;23.10;17.75;;;;;;;-143.21;78.42;71731.13;5064297;28;20280;-77
2023/08/16 03:44:28;;;;;;;24.35;18.55;;;;;;;-143.21;78.47;71729.13;5062529;28;20200;-77
2023/08/16 03:46:56;;;;;;;23.15;17.20;;;;;;;-143.21;78.48;71733.09;5060773;28;20212;-78
2023/08/16 03:49:23;;;;;;;24.73;17.80;;;;;;;-143.21;78.17;71729.13;5065607;28;20223;-76
2023/08/16 03:51:51;;;;;;;26.30;16.38;;;;;;;-143.21;78.00;71717.25;5065845;28;20703;-75
2023/08/16 03:54:17;;;;;;;21.13;16.00;;;;;;;-143.21;77.71;71715.25;5061905;28;20237;-77
2023/08/16 03:56:44;;;;;;;31.95;18.67;;;;;;;-143.21;77.88;71711.28;5052204;28;20209;-76
2023/08/16 03:59:11;;;;;;;23.17;15.57;;;;;;;-143.21;77.53;71705.34;5057156;28;20221;-82
2023/08/16 04:01:39;;;;;;;21.08;14.82;;;;;;;-143.21;77.49;71709.31;5058749;28;20198;-82
2023/08/16 04:04:06;;;;;;;20.35;15.32;;;;;;;-143.21;77.11;71709.31;5060572;28;20209;-84
2023/08/16 04:06:33;;;;;;;24.90;14.93;;;;;;;-143.21;77.05;71703.34;5063563;28;20271;-83
2023/08/16 04:09:00;;;;;;;24.02;15.55;;;;;;;-143.21;77.14;71705.34;5056829;28;20210;-82
2023/08/16 04:11:27;;;;;;;22.30;15.45;;;;;;;-143.21;77.12;71705.34;5052562;28;20221;-83
2023/08/16 04:13:53;;;;;;;24.52;16.60;;;;;;;-143.21;77.32;71707.31;5061730;28;20202;-82
2023/08/16 04:16:20;;;;;;;23.05;15.00;;;;;;;-143.21;77.30;71701.38;5060817;28;20202;-83
2023/08/16 04:18:50;;;;;;;28.33;16.00;;;;;;;-143.21;76.74;71699.41;5063490;28;20209;-82
2023/08/16 04:21:17;;;;;;;26.30;16.00;;;;;;;-143.21;76.32;71707.31;5055109;28;20626;-81
2023/08/16 04:23:43;;;;;;;33.80;15.90;;;;;;;-143.21;76.61;71707.31;5065333;28;20252;-82
2023/08/16 04:26:10;;;;;;;25.42;16.38;;;;;;;-143.21;76.69;71709.31;5063640;28;20232;-82
2023/08/16 04:28:37;;;;;;;22.95;16.00;;;;;;;-143.21;76.78;71709.31;5066266;28;20209;-83
2023/08/16 04:31:04;;;;;;;26.60;15.20;;;;;;;-143.21;76.96;71711.28;5063812;28;20257;-82
2023/08/16 04:33:31;;;;;;;28.27;17.10;;;;;;;-143.21;77.19;71717.25;5061800;28;20205;-83
2023/08/16 04:35:59;;;;;;;24.80;16.75;;;;;;;-143.21;77.50;71721.22;5061019;28;20223;-82
2023/08/16 04:38:27;;;;;;;24.02;16.45;;;;;;;-143.21;77.78;71723.19;5061173;28;20688;-81
2023/08/16 04:40:54;;;;;;;27.95;16.65;;;;;;;-143.21;77.50;71725.16;5062036;28;20206;-81
2023/08/16 04:43:21;;;;;;;26.80;17.55;;;;;;;-143.21;77.53;71711.28;5062715;28;20206;-81
2023/08/16 04:45:47;;;;;;;26.63;17.00;;;;;;;-143.21;77.18;71703.34;5063540;28;20205;-82
2023/08/16 04:48:14;;;;;;;24.58;17.00;;;;;;;-143.21;77.11;71699.41;5063305;28;20194;-83
2023/08/16 04:50:41;;;;;;;26.17;17.20;;;;;;;-143.21;77.46;71697.41;5060257;28;20582;-83
2023/08/16 04:53:09;;;;;;;33.17;15.98;;;;;;;-143.21;77.48;71691.47;5059200;28;20217;-77
2023/08/16 04:55:36;;;;;;;21.85;15.43;;;;;;;-143.21;76.69;71679.56;5066340;28;20214;-77
2023/08/16 04:58:03;;;;;;;26.05;15.65;;;;;;;-143.21;76.18;71671.63;5063061;28;20209;-76
2023/08/16 05:00:30;;;;;;;20.52;15.20;;;;;;;-143.21;76.24;71667.66;5064236;28;20205;-76
2023/08/16 05:02:56;;;;;;;20.73;15.15;;;;;;;-143.21;75.66;71653.78;5063012;28;20201;-76
2023/08/16 05:05:23;;;;;;;21.75;14.63;;;;;;;-143.21;75.57;71645.88;5062842;28;20210;-76
2023/08/16 05:07:50;;;;;;;21.42;14.75;;;;;;;-143.21;75.52;71641.91;5059582;28;20212;-78
2023/08/16 05:10:18;;;;;;;29.08;15.40;;;;;;;-143.21;75.37;71630.00;5059651;28;20206;-78
2023/08/16 05:12:45;;;;;;;19.77;13.27;;;;;;;-143.21;74.77;71616.13;5063720;28;20198;-76
2023/08/16 05:15:12;;;;;;;19.73;13.88;;;;;;;-143.21;74.13;71612.16;5061639;28;20209;-76
2023/08/16 05:17:39;;;;;;;19.27;13.80;;;;;;;-143.21;74.11;71606.22;5062597;28;20209;-76
2023/08/16 05:20:08;;;;;;;20.70;14.07;;;;;;;-143.21;73.78;71602.25;5055328;28;20221;-76
2023/08/16 05:22:34;;;;;;;18.10;13.70;;;;;;;-143.21;73.36;71598.28;5059565;28;20271;-75
2023/08/16 05:25:01;;;;;;;24.10;15.95;;;;;;;-143.21;72.92;71578.44;5058971;28;20195;-76
2023/08/16 05:27:30;;;;;;;25.73;16.95;;;;;;;-143.21;72.47;71572.50;5064896;28;20212;-76
2023/08/16 05:29:57;;;;;;;25.65;17.00;;;;;;;-143.21;72.57;71572.50;5055761;28;20217;-75
2023/08/16 05:32:24;;;;;;;25.65;17.00;;;;;;;-143.21;72.83;71570.53;5054091;28;20233;-75
2023/08/16 05:34:53;;;;;;;27.48;16.30;;;;;;;-143.21;73.12;71564.56;5057963;28;20652;-76
2023/08/16 05:37:20;;;;;;;23.83;16.15;;;;;;;-143.21;73.02;71558.63;5063287;28;20229;-76
2023/08/16 05:39:47;;;;;;;20.13;15.80;;;;;;;-143.21;72.92;71546.72;5059928;28;20205;-75
2023/08/16 05:42:13;;;;;;;22.73;14.38;;;;;;;-143.21;72.21;71522.94;5063234;28;20210;-75
2023/08/16 05:44:42;;;;;;;15.95;12.18;;;;;;;-143.21;71.00;71503.09;5057588;28;20205;-75
2023/08/16 05:47:08;;;;;;;18.10;13.27;;;;;;;-143.21;71.00;71505.09;5064468;28;20209;-80
2023/08/16 05:49:35;;;;;;;20.75;13.00;;;;;;;-143.21;71.02;71503.09;5059431;28;20213;-81
2023/08/16 05:52:02;;;;;;;17.75;12.85;;;;;;;-143.21;70.44;71491.22;5058801;28;20232;-80
2023/08/16 05:54:29;;;;;;;22.02;12.70;;;;;;;-143.21;69.66;71477.34;5062410;28;20234;-82
2023/08/16 05:56:55;;;;;;;19.10;12.15;;;;;;;-143.21;69.76;71481.28;5056433;28;20212;-80
2023/08/16 05:59:22;;;;;;;14.45;11.77;;;;;;;-143.21;69.81;71487.25;5056751;28;20197;-81
2023/08/16 06:01:50;;;;;;;20.15;13.00;;;;;;;-143.21;69.63;71479.31;5063582;28;20206;-81
2023/08/16 06:04:18;;;;;;;21.15;12.75;;;;;;;-143.21;69.76;71477.34;5060808;28;20581;-80
2023/08/16 06:06:44;;;;;;;18.00;12.73;;;;;;;-143.21;69.71;71475.34;5060772;28;20263;-81
2023/08/16 06:09:11;;;;;;;17.00;13.05;;;;;;;-143.21;69.32;71471.38;5056334;28;20201;-81
2023/08/16 06:11:38;;;;;;;18.98;12.48;;;;;;;-143.21;68.91;71441.63;5059613;28;20222;-76
2023/08/16 06:14:05;;;;;;;17.85;12.98;;;;;;;-143.21;68.21;71421.81;5061095;28;20248;-75
2023/08/16 06:16:32;;;;;;;15.30;12.27;;;;;;;-143.21;67.92;71411.91;5059041;28;20190;-76
2023/08/16 06:19:01;;;;;;;19.67;12.27;;;;;;;-143.21;67.93;71405.94;5060659;28;20251;-76
2023/08/16 06:21:28;;;;;;;25.48;13.57;;;;;;;-143.21;67.99;71409.91;5055217;28;20640;-76
2023/08/16 06:23:56;;;;;;;23.40;15.48;;;;;;;-143.21;68.52;71425.78;5062760;28;20220;-76
2023/08/16 06:26:23;;;;;;;22.70;16.10;;;;;;;-143.21;68.58;71421.81;5059854;28;20204;-76
2023/08/16 06:28:50;;;;;;;24.73;17.00;;;;;;;-143.21;68.45;71415.88;5057022;28;20194;-76
2023/08/16 06:31:17;;;;;;;25.83;16.85;;;;;;;-143.21;68.76;71415.88;5061652;28;20313;-76
2023/08/16 06:33:44;;;;;;;23.85;16.20;;;;;;;-143.21;68.72;71421.81;5057134;28;20213;-77
2023/08/16 06:36:12;;;;;;;24.05;15.07;;;;;;;-143.21;68.82;71415.88;5056301;28;20197;-76
2023/08/16 06:38:40;;;;;;;23.23;16.45;;;;;;;-143.21;68.45;71407.94;5059182;28;20198;-80
2023/08/16 06:41:06;;;;;;;28.02;15.88;;;;;;;-143.21;68.32;71398.03;5060867;28;20206;-75
2023/08/16 06:43:34;;;;;;;21.92;16.38;;;;;;;-143.21;68.30;71398.03;5055815;28;20214;-76
2023/08/16 06:46:00;;;;;;;31.58;20.08;;;;;;;-143.21;67.66;71390.09;5058945;28;20201;-75
2023/08/16 06:48:28;;;;;;;27.67;18.25;;;;;;;-143.21;67.26;71386.13;5061588;28;20208;-75
2023/08/16 06:50:55;;;;;;;27.00;17.17;;;;;;;-143.21;67.35;71380.19;5055270;28;20213;-76
2023/08/16 06:53:25;;;;;;;21.33;15.30;;;;;;;-143.21;67.55;71380.19;5060966;28;20260;-76
2023/08/16 06:55:54;;;;;;;18.85;14.13;;;;;;;-143.21;67.56;71378.19;5057920;28;20197;-76
2023/08/16 06:58:21;;;;;;;21.30;13.13;;;;;;;-143.21;67.41;71358.38;5057565;28;20202;-80
2023/08/16 07:00:49;;;;;;;22.50;13.27;;;;;;;-143.21;67.08;71352.44;5058968;28;20644;-76
2023/08/16 07:03:17;;;;;;;23.55;13.20;;;;;;;-143.21;66.71;71340.53;5062695;28;20694;-75
2023/08/16 07:05:44;;;;;;;22.63;12.90;;;;;;;-143.21;66.29;71328.63;5058281;28;20213;-76
2023/08/16 07:08:11;;;;;;;19.88;12.27;;;;;;;-143.21;66.00;71318.72;5053553;28;20597;-76
2023/08/16 07:10:39;;;;;;;18.75;12.70;;;;;;;-143.21;65.63;71306.81;5059173;28;20627;-76
2023/08/16 07:13:06;;;;;;;21.15;12.00;;;;;;;-143.21;64.67;71275.09;5059003;28;20194;-75
2023/08/16 07:15:33;;;;;;;18.02;12.70;;;;;;;-143.21;64.32;71261.22;5060671;28;20228;-79
2023/08/16 07:18:01;;;;;;;16.70;12.40;;;;;;;-143.21;64.33;71251.31;5054674;28;20282;-80
2023/08/16 07:20:28;;;;;;;18.42;12.05;;;;;;;-143.21;64.14;71249.34;5056260;28;20212;-75
2023/08/16 07:22:55;;;;;;;21.00;11.95;;;;;;;-143.21;63.78;71241.41;5059038;28;20285;-75
2023/08/16 07:25:22;;;;;;;19.27;12.35;;;;;;;-143.21;63.68;71235.44;5053001;28;20193;-76
2023/08/16 07:27:50;;;;;;;21.27;12.77;;;;;;;-143.21;63.62;71231.50;5060578;28;20193;-75
2023/08/16 07:30:17;;;;;;;22.08;12.18;;;;;;;-143.21;63.51;71233.47;5057768;28;20255;-76
2023/08/16 07:32:44;;;;;;;21.85;12.82;;;;;;;-143.21;63.57;71219.59;5058786;28;20302;-76
2023/08/16 07:35:11;;;;;;;17.20;12.10;;;;;;;-143.21;63.83;71209.69;5057690;28;20202;-76
2023/08/16 07:37:38;;;;;;;18.15;11.00;;;;;;;-143.21;62.99;71197.78;5058092;28;20209;-76
2023/08/16 07:40:06;;;;;;;17.30;10.82;;;;;;;-143.21;62.94;71187.88;5058236;28;20213;-76
2023/08/16 07:42:33;;;;;;;12.15;10.23;;;;;;;-143.21;61.98;71168.06;5055646;28;20208;-76
2023/08/16 07:45:02;;;;;;;13.55;10.00;;;;;;;-143.21;61.32;71154.16;5056265;28;20198;-76
2023/08/16 07:47:29;;;;;;;17.52;10.30;;;;;;;-143.21;61.64;71154.16;5056394;28;20208;-76
2023/08/16 07:49:56;;;;;;;19.33;10.70;;;;;;;-143.21;60.86;71134.34;5061745;28;20208;-76
2023/08/16 07:52:22;;;;;;;16.75;10.55;;;;;;;-143.21;61.13;71122.44;5058323;28;20703;-75
2023/08/16 07:54:49;;;;;;;20.00;10.00;;;;;;;-143.21;60.73;71106.59;5061884;28;20229;-76
2023/08/16 07:57:16;;;;;;;15.88;10.30;;;;;;;-143.21;60.31;71100.66;5068568;28;20217;-76
2023/08/16 07:59:43;;;;;;;17.95;10.80;;;;;;;-143.21;60.09;71092.72;5065223;28;20808;-76
2023/08/16 08:02:12;;;;;;;11.10;9.52;;;;;;;-143.21;60.23;71092.72;5067541;28;20736;-73
2023/08/16 08:04:39;;;;;;;18.27;9.30;;;;;;;-143.21;59.52;71076.84;5040987;28;20201;-74
2023/08/16 08:07:06;;;;;;;14.02;8.32;;;;;;;-143.21;59.18;71072.88;5055590;28;20238;-73
2023/08/16 08:09:33;;;;;;;10.32;8.60;;;;;;;-143.21;58.43;71059.00;5057574;28;20679;-73
2023/08/16 08:12:01;;;;;;;14.35;8.90;;;;;;;-143.21;57.94;71043.16;5052071;28;20225;-73
2023/08/16 08:14:28;;;;;;;14.65;9.30;;;;;;;-143.21;57.85;71039.19;5063866;28;20636;-73
2023/08/16 08:16:56;;;;;;;17.02;9.43;;;;;;;-143.21;57.86;71025.31;5058653;28;20214;-73
2023/08/16 08:19:24;;;;;;;15.60;8.93;;;;;;;-143.21;57.87;71013.41;5068231;28;20209;-74
2023/08/16 08:21:51;;;;;;;14.10;9.13;;;;;;;-143.21;57.34;70999.53;5063541;28;20216;-74
2023/08/16 08:24:18;;;;;;;13.35;8.93;;;;;;;-143.21;56.82;70985.66;5058757;28;20209;-73
2023/08/16 08:26:45;;;;;;;18.17;9.27;;;;;;;-143.21;56.92;70973.78;5063620;28;20216;-73
2023/08/16 08:29:11;;;;;;;17.02;10.10;;;;;;;-143.21;56.57;70975.75;5060876;28;20205;-73
2023/08/16 08:31:38;;;;;;;12.85;8.80;;;;;;;-143.21;56.28;70975.75;5061789;28;20221;-73
2023/08/16 08:34:05;;;;;;;9.82;8.52;;;;;;;-143.21;56.37;70965.84;5057784;28;20213;-73
2023/08/16 08:36:33;;;;;;;12.20;9.85;;;;;;;-143.21;56.15;70959.91;5060236;28;20205;-74
2023/08/16 08:39:00;;;;;;;14.05;9.68;;;;;;;-143.21;56.29;70949.97;5053047;28;20198;-74
2023/08/16 08:41:27;;;;;;;13.82;9.75;;;;;;;-143.21;56.16;70942.06;5064134;28;20212;-74
2023/08/16 08:43:55;;;;;;;11.38;8.75;;;;;;;-143.21;55.48;70932.13;5060576;28;20209;-80
2023/08/16 08:46:23;;;;;;;9.75;8.70;;;;;;;-143.21;54.51;70914.31;5063255;28;20206;-80
2023/08/16 08:48:50;;;;;;;15.68;8.65;;;;;;;-143.21;54.30;70896.47;5065782;28;20271;-79
2023/08/16 08:51:16;;;;;;;13.85;8.95;;;;;;;-143.21;54.69;70888.53;5053456;28;20206;-79
2023/08/16 08:53:45;;;;;;;11.55;8.82;;;;;;;-143.21;54.27;70880.59;5065006;28;20233;-79
2023/08/16 08:56:15;;;;;;;11.85;8.48;;;;;;;-143.21;53.43;70874.66;5058080;28;20193;-80
2023/08/16 08:58:46;;;;;;;12.27;8.80;;;;;;;-143.21;53.74;70864.75;5063628;28;20285;-78
2023/08/16 09:01:14;;;;;;;12.32;9.18;;;;;;;-143.21;53.59;70856.81;5058923;28;20206;-79
2023/08/16 09:03:44;;;;;;;11.45;9.00;;;;;;;-143.21;52.93;70837.00;5065777;28;20205;-79
2023/08/16 09:06:12;;;;;;;15.07;8.43;;;;;;;-143.21;52.37;70817.16;5061856;28;20205;-78
2023/08/16 09:08:43;;;;;;;13.75;9.30;;;;;;;-143.21;51.86;70799.31;5065875;28;20213;-80
2023/08/16 09:11:12;;;;;;;14.18;9.20;;;;;;;-143.21;52.12;70783.47;5062221;28;20703;-79
2023/08/16 09:13:39;;;;;;;12.02;8.55;;;;;;;-143.21;51.54;70771.56;5065765;28;20229;-80
2023/08/16 09:16:05;;;;;;;16.40;9.07;;;;;;;-143.21;50.84;70769.59;5063782;28;20221;-79
2023/08/16 09:18:32;;;;;;;10.05;8.38;;;;;;;-143.21;49.85;70769.59;5065847;28;20205;-80
2023/08/16 09:21:00;;;;;;;11.15;9.27;;;;;;;-143.21;50.65;70765.63;5063331;28;20224;-79
2023/08/16 09:23:27;;;;;;;13.43;8.73;;;;;;;-143.21;49.59;70747.78;5060117;28;20275;-79
2023/08/16 09:25:54;;;;;;;11.70;8.90;;;;;;;-143.21;50.26;70727.97;5060064;28;20213;-80
2023/08/16 09:28:23;;;;;;;12.85;8.63;;;;;;;-143.21;49.91;70714.09;5063205;28;20205;-81
2023/08/16 09:30:50;;;;;;;13.23;8.75;;;;;;;-143.21;49.59;70700.22;5062565;28;20576;-81
2023/08/16 09:33:19;;;;;;;11.70;8.70;;;;;;;-143.21;49.68;70692.28;5057630;28;20244;-81
2023/08/16 09:35:48;;;;;;;12.60;9.40;;;;;;;-143.21;49.40;70684.34;5055260;28;20241;-80
2023/08/16 09:38:15;;;;;;;11.65;8.85;;;;;;;-143.21;48.45;70666.50;5056087;28;20738;-79
2023/08/16 09:40:48;;;;;;;11.43;8.50;;;;;;;-143.21;48.04;70654.63;5066033;28;20259;-80
2023/08/16 09:43:15;;;;;;;11.18;8.30;;;;;;;-143.21;47.69;70644.72;5061074;28;20225;-80
2023/08/16 09:45:44;;;;;;;13.75;8.45;;;;;;;-143.21;47.87;70630.84;5059375;28;20208;-80
2023/08/16 09:48:10;;;;;;;12.32;9.05;;;;;;;-143.21;47.22;70634.81;5057907;28;20208;-81
2023/08/16 09:50:37;;;;;;;9.85;8.35;;;;;;;-143.21;47.42;70640.75;5062314;28;20678;-81
2023/08/16 09:53:05;;;;;;;14.98;9.43;;;;;;;-143.21;47.40;70638.75;5057893;28;20226;-81
2023/08/16 09:55:33;;;;;;;12.38;8.80;;;;;;;-143.21;46.90;70626.88;5061424;28;20285;-80
2023/08/16 09:58:01;;;;;;;12.55;9.00;;;;;;;-143.21;47.39;70603.09;5067842;28;20209;-80
2023/08/16 10:00:29;;;;;;;14.00;8.70;;;;;;;-143.21;46.91;70583.25;5063387;28;20212;-79
2023/08/16 10:02:58;;;;;;;14.32;9.18;;;;;;;-143.21;47.07;70557.50;5058438;28;20201;-80
2023/08/16 10:05:26;;;;;;;13.13;8.77;;;;;;;-143.21;46.26;70549.56;5063142;28;20201;-82
2023/08/16 10:07:55;;;;;;;24.23;13.35;;;;;;;-143.21;46.75;70533.72;5055939;28;20212;-76
2023/08/16 10:10:22;;;;;;;14.20;9.27;;;;;;;-143.21;46.14;70531.72;5061900;28;20648;-75
2023/08/16 10:12:50;;;;;;;12.95;8.55;;;;;;;-143.21;45.42;70519.84;5066226;28;20228;-75
2023/08/16 10:15:17;;;;;;;15.43;8.63;;;;;;;-143.21;44.62;70496.06;5064260;28;20201;-74
2023/08/16 10:17:44;;;;;;;14.43;9.13;;;;;;;-143.21;44.72;70474.25;5064609;28;20609;-75
2023/08/16 10:20:18;;;;;;;15.15;10.18;;;;;;;-143.21;44.29;70464.34;5063797;28;20190;-75
2023/08/16 10:22:50;;;;;;;18.02;8.75;;;;;;;-143.21;43.96;70460.38;5064392;28;20197;-75
2023/08/16 10:25:23;;;;;;;12.18;8.77;;;;;;;-143.21;44.09;70464.34;5064310;28;20237;-74
2023/08/16 10:27:51;;;;;;;12.68;8.25;;;;;;;-143.21;43.12;70452.44;5060814;28;20197;-74
2023/08/16 10:30:22;;;;;;;11.98;8.25;;;;;;;-143.21;43.81;70464.34;5063718;28;20204;-74
2023/08/16 10:32:52;;;;;;;14.55;8.68;;;;;;;-143.21;43.94;70446.50;5063617;28;20779;-75
2023/08/16 10:35:24;;;;;;;12.38;8.27;;;;;;;-143.21;43.48;70436.59;5067545;28;20197;-75
2023/08/16 10:37:53;;;;;;;13.23;8.75;;;;;;;-143.21;44.22;70482.19;5064542;28;20259;-74
2023/08/16 10:40:24;;;;;;;13.20;8.50;;;;;;;-143.21;44.79;70488.13;5060187;28;20579;-79
2023/08/16 10:42:58;;;;;;;12.20;8.10;;;;;;;-143.21;44.00;70466.31;5060395;28;20280;-80
2023/08/16 10:45:26;;;;;;;14.98;8.15;;;;;;;-143.21;43.32;70456.41;5057978;28;20202;-79
2023/08/16 10:47:54;;;;;;;10.35;7.93;;;;;;;-143.21;43.54;70406.84;5066321;28;20239;-79
2023/08/16 10:50:31;;;;;;;12.30;7.82;;;;;;;-143.21;42.89;70365.25;5062431;28;20226;-75
2023/08/16 10:52:59;;;;;;;13.45;8.20;;;;;;;-143.21;42.52;70377.13;5064295;28;20209;-75
2023/08/16 10:55:26;;;;;;;13.63;7.93;;;;;;;-143.21;42.93;70391.00;5062284;28;20693;-75
2023/08/16 10:57:53;;;;;;;11.38;8.20;;;;;;;-143.21;43.58;70420.72;5061957;28;20201;-75
2023/08/16 11:00:20;;;;;;;13.68;8.20;;;;;;;-143.21;43.94;70442.53;5058299;28;20209;-75
2023/08/16 11:02:51;;;;;;;10.90;8.57;;;;;;;-143.21;43.56;70422.72;5066489;28;20202;-80
2023/08/16 11:05:22;;;;;;;11.25;8.20;;;;;;;-143.21;42.89;70381.09;5057420;28;20201;-79